createdAt,value
2019-06-07T00:01:50.758Z,27.70
2019-06-07T00:04:21.481Z,27.80
2019-06-07T00:06:51.341Z,27.80
2019-06-07T00:09:22.639Z,27.80
2019-06-07T00:11:52.018Z,27.90
2019-06-07T00:14:21.866Z,27.90
2019-06-07T00:16:51.775Z,27.90
2019-06-07T00:19:22.044Z,28.00
2019-06-07T00:22:15.800Z,28.00
2019-06-07T00:24:23.042Z,28.00
2019-06-07T00:26:58.768Z,28.10
2019-06-07T00:29:24.022Z,28.20
2019-06-07T00:31:53.861Z,28.20
2019-06-07T00:34:25.047Z,28.20
2019-06-07T00:36:54.862Z,28.20
2019-06-07T00:39:25.803Z,28.20
2019-06-07T00:41:55.960Z,28.30
2019-06-07T00:44:25.836Z,28.30
2019-06-07T00:46:55.772Z,28.30
2019-06-07T00:49:39.822Z,28.40
2019-06-07T00:51:56.813Z,28.40
2019-06-07T00:54:26.734Z,28.40
2019-06-07T00:56:56.654Z,28.40
2019-06-07T00:59:29.561Z,28.50
2019-06-07T01:01:57.655Z,28.50
2019-06-07T01:04:27.487Z,28.50
2019-06-07T01:06:57.294Z,28.60
2019-06-07T01:09:27.224Z,28.60
2019-06-07T01:11:57.038Z,28.60
2019-06-07T01:14:28.401Z,28.70
2019-06-07T01:17:20.140Z,28.70
2019-06-07T01:19:29.413Z,28.70
2019-06-07T01:21:59.402Z,28.80
2019-06-07T01:24:29.390Z,28.80
2019-06-07T01:26:59.267Z,28.90
2019-06-07T01:29:30.813Z,28.90
2019-06-07T01:32:00.152Z,29.00
2019-06-07T01:34:30.016Z,29.00
2019-06-07T01:36:59.704Z,29.10
2019-06-07T01:39:31.492Z,29.10
2019-06-07T01:42:00.598Z,29.10
2019-06-07T01:44:31.082Z,29.10
2019-06-07T01:47:01.594Z,29.20
2019-06-07T01:49:31.535Z,29.20
2019-06-07T01:52:01.366Z,29.20
2019-06-07T01:57:02.400Z,29.20
2019-06-07T01:59:32.213Z,29.30
2019-06-07T02:02:02.107Z,29.30
2019-06-07T02:04:33.174Z,29.30
2019-06-07T02:07:03.122Z,29.30
2019-06-07T02:09:33.091Z,29.30
2019-06-07T02:12:02.984Z,29.40
2019-06-07T02:14:33.805Z,29.40
2019-06-07T02:17:03.881Z,29.40
2019-06-07T02:19:33.811Z,29.40
2019-06-07T02:22:03.784Z,29.50
2019-06-07T02:24:36.047Z,29.50
2019-06-07T02:27:04.801Z,29.60
2019-06-07T02:29:34.691Z,29.60
2019-06-07T02:32:04.438Z,29.70
2019-06-07T02:34:38.726Z,29.70
2019-06-07T02:37:05.545Z,29.80
2019-06-07T02:39:40.373Z,29.80
2019-06-07T02:42:06.735Z,29.90
2019-06-07T02:44:39.687Z,30.00
2019-06-07T02:47:07.740Z,30.00
2019-06-07T02:49:41.465Z,30.00
2019-06-07T02:52:08.861Z,30.10
2019-06-07T02:54:40.359Z,30.10
2019-06-07T02:57:09.748Z,30.10
2019-06-07T03:00:03.173Z,30.20
2019-06-07T03:02:10.616Z,30.30
2019-06-07T03:04:42.348Z,30.30
2019-06-07T03:07:11.621Z,30.40
2019-06-07T03:09:41.678Z,30.40
2019-06-07T03:12:11.600Z,30.40
2019-06-07T03:14:41.574Z,30.40
2019-06-07T03:17:12.523Z,30.50
2019-06-07T03:19:43.609Z,30.60
2019-06-07T03:22:13.537Z,30.60
2019-06-07T03:24:44.192Z,30.70
2019-06-07T03:27:39.399Z,30.70
2019-06-07T03:29:45.689Z,30.80
2019-06-07T03:32:15.664Z,30.80
2019-06-07T03:34:45.434Z,30.90
2019-06-07T03:37:16.657Z,31.00
2019-06-07T03:39:46.601Z,31.00
2019-06-07T03:42:16.437Z,31.10
2019-06-07T03:44:46.400Z,31.20
2019-06-07T03:47:16.333Z,31.20
2019-06-07T03:49:46.258Z,31.30
2019-06-07T03:52:16.069Z,31.40
2019-06-07T03:54:46.128Z,31.40
2019-06-07T03:57:16.189Z,31.40
2019-06-07T03:59:45.853Z,31.30
2019-06-07T04:02:15.663Z,31.40
2019-06-07T04:04:45.452Z,31.30
2019-06-07T04:07:15.223Z,31.40
2019-06-07T04:09:45.060Z,31.40
2019-06-07T04:12:14.974Z,31.40
2019-06-07T04:14:44.898Z,31.40
2019-06-07T04:17:14.794Z,31.40
2019-06-07T04:19:44.705Z,31.40
2019-06-07T04:22:14.341Z,31.50
2019-06-07T04:24:44.169Z,31.50
2019-06-07T04:27:14.123Z,31.60
2019-06-07T04:30:05.842Z,31.60
2019-06-07T04:32:15.207Z,31.60
2019-06-07T04:34:45.204Z,31.70
2019-06-07T04:37:15.041Z,31.70
2019-06-07T04:39:45.574Z,31.80
2019-06-07T04:42:16.703Z,31.90
2019-06-07T04:44:49.723Z,31.90
2019-06-07T04:47:20.222Z,32.00
2019-06-07T04:49:53.307Z,32.20
2019-06-07T04:52:23.291Z,32.20
2019-06-07T04:54:53.149Z,32.20
2019-06-07T04:57:23.035Z,32.30
2019-06-07T05:00:11.952Z,32.30
2019-06-07T05:02:24.306Z,32.40
2019-06-07T05:04:54.206Z,32.40
2019-06-07T05:07:24.149Z,32.40
2019-06-07T05:09:53.917Z,32.50
2019-06-07T05:12:23.858Z,32.40
2019-06-07T05:14:53.648Z,32.40
2019-06-07T05:17:23.661Z,32.40
2019-06-07T05:19:53.360Z,32.40
2019-06-07T05:22:23.376Z,32.40
2019-06-07T05:24:53.373Z,32.40
2019-06-07T05:27:23.042Z,32.40
2019-06-07T05:30:09.615Z,32.40
2019-06-07T05:32:23.970Z,32.40
2019-06-07T05:34:53.772Z,32.50
2019-06-07T05:37:23.719Z,32.50
2019-06-07T05:39:53.760Z,32.50
2019-06-07T05:42:23.805Z,32.50
2019-06-07T05:44:53.715Z,32.60
2019-06-07T05:47:23.639Z,32.70
2019-06-07T05:49:53.603Z,32.70
2019-06-07T05:52:23.535Z,32.70
2019-06-07T05:54:53.442Z,32.80
2019-06-07T05:57:23.325Z,32.80
2019-06-07T05:59:53.286Z,32.90
2019-06-07T06:02:24.761Z,32.90
2019-06-07T06:04:54.277Z,33.00
2019-06-07T06:07:24.171Z,33.10
2019-06-07T06:09:54.099Z,33.10
2019-06-07T06:12:34.584Z,33.20
2019-06-07T06:14:55.071Z,33.20
2019-06-07T06:17:25.061Z,33.30
2019-06-07T06:19:54.919Z,33.30
2019-06-07T06:22:24.776Z,33.30
2019-06-07T06:25:29.873Z,33.30
2019-06-07T06:28:03.480Z,33.30
2019-06-07T06:29:58.032Z,33.30
2019-06-07T06:32:41.937Z,33.40
2019-06-07T06:34:58.919Z,33.40
2019-06-07T06:37:28.983Z,33.40
2019-06-07T06:39:58.941Z,33.40
2019-06-07T06:42:28.951Z,33.40
2019-06-07T06:44:58.818Z,33.40
2019-06-07T06:47:28.542Z,33.40
2019-06-07T06:49:58.072Z,33.40
2019-06-07T06:52:28.132Z,33.40
2019-06-07T06:55:00.932Z,33.40
2019-06-07T06:57:29.115Z,33.30
2019-06-07T06:59:59.535Z,33.20
2019-06-07T07:02:29.452Z,33.20
2019-06-07T07:04:59.362Z,33.20
2019-06-07T07:07:29.209Z,33.20
2019-06-07T07:09:59.983Z,33.20
2019-06-07T07:12:30.016Z,33.20
2019-06-07T07:14:59.867Z,33.20
2019-06-07T07:17:47.867Z,33.20
2019-06-07T07:20:00.825Z,33.20
2019-06-07T07:22:30.733Z,33.20
2019-06-07T07:25:00.500Z,33.30
2019-06-07T07:27:30.312Z,33.30
2019-06-07T07:30:34.810Z,33.40
2019-06-07T07:32:31.460Z,33.40
2019-06-07T07:35:01.417Z,33.50
2019-06-07T07:37:31.366Z,33.60
2019-06-07T07:40:21.446Z,33.60
2019-06-07T07:42:32.450Z,33.60
2019-06-07T07:45:02.272Z,33.60
2019-06-07T07:47:32.130Z,33.60
2019-06-07T07:50:02.008Z,33.50
2019-06-07T07:52:31.894Z,33.40
2019-06-07T07:55:01.913Z,33.20
2019-06-07T07:57:31.808Z,33.10
2019-06-07T08:00:36.297Z,33.00
2019-06-07T08:02:32.724Z,32.90
2019-06-07T08:05:28.863Z,32.80
2019-06-07T08:07:34.184Z,32.70
2019-06-07T08:10:04.560Z,32.60
2019-06-07T08:12:55.478Z,32.60
2019-06-07T08:15:06.673Z,32.50
2019-06-07T08:17:36.589Z,32.40
2019-06-07T08:20:07.075Z,32.40
2019-06-07T08:22:36.832Z,32.30
2019-06-07T08:25:08.051Z,32.30
2019-06-07T08:27:37.882Z,32.20
2019-06-07T08:30:46.377Z,32.20
2019-06-07T08:32:40.210Z,32.20
2019-06-07T08:35:10.197Z,32.20
2019-06-07T08:38:14.947Z,32.10
2019-06-07T08:40:11.186Z,32.10
2019-06-07T08:42:59.720Z,32.10
2019-06-07T08:45:13.494Z,32.00
2019-06-07T08:47:43.630Z,32.00
2019-06-07T08:50:13.760Z,31.90
2019-06-07T08:52:43.553Z,31.90
2019-06-07T08:55:13.526Z,31.90
2019-06-07T08:57:43.458Z,31.80
2019-06-07T09:02:44.609Z,31.80
2019-06-07T09:05:14.657Z,31.80
2019-06-07T09:07:44.958Z,31.80
2019-06-07T09:10:15.556Z,31.70
2019-06-07T09:12:45.642Z,31.70
2019-06-07T09:15:23.616Z,31.70
2019-06-07T09:18:30.238Z,31.70
2019-06-07T09:20:35.923Z,31.70
2019-06-07T09:22:49.153Z,31.70
2019-06-07T09:25:21.454Z,31.70
2019-06-07T09:27:50.184Z,31.70
2019-06-07T09:30:21.255Z,31.80
2019-06-07T09:32:51.107Z,31.90
2019-06-07T09:35:20.968Z,31.90
2019-06-07T09:38:18.150Z,31.90
2019-06-07T09:40:27.627Z,32.00
2019-06-07T09:43:38.009Z,32.00
2019-06-07T09:45:25.993Z,32.00
2019-06-07T09:47:58.605Z,32.10
2019-06-07T09:50:27.102Z,32.10
2019-06-07T09:53:02.627Z,32.20
2019-06-07T09:55:28.117Z,32.20
2019-06-07T09:58:06.922Z,32.20
2019-06-07T10:00:41.215Z,32.20
2019-06-07T10:03:13.683Z,32.30
2019-06-07T10:05:32.242Z,32.30
2019-06-07T10:08:22.357Z,32.40
2019-06-07T10:13:04.039Z,32.40
2019-06-07T10:15:33.944Z,32.40
2019-06-07T10:18:04.862Z,32.40
2019-06-07T10:20:34.591Z,32.40
2019-06-07T10:23:05.584Z,32.40
2019-06-07T10:25:35.717Z,32.50
2019-06-07T10:28:06.041Z,32.50
2019-06-07T10:30:36.140Z,32.40
2019-06-07T10:33:06.857Z,32.40
2019-06-07T10:35:36.837Z,32.40
2019-06-07T10:38:06.728Z,32.40
2019-06-07T10:40:36.654Z,32.40
2019-06-07T10:43:07.238Z,32.40
2019-06-07T10:45:37.116Z,32.40
2019-06-07T10:48:07.630Z,32.40
2019-06-07T10:50:37.436Z,32.40
2019-06-07T10:53:08.380Z,32.40
2019-06-07T10:55:38.271Z,32.30
2019-06-07T10:58:09.087Z,32.30
2019-06-07T11:00:39.057Z,32.30
2019-06-07T11:03:09.907Z,32.30
2019-06-07T11:05:39.959Z,32.20
2019-06-07T11:08:10.239Z,32.20
2019-06-07T11:10:40.203Z,32.20
2019-06-07T11:13:10.366Z,32.10
2019-06-07T11:15:40.414Z,32.10
2019-06-07T11:18:10.313Z,32.10
2019-06-07T11:20:40.709Z,32.00
2019-06-07T11:23:10.671Z,32.00
2019-06-07T11:25:40.719Z,31.90
2019-06-07T11:28:10.892Z,31.90
2019-06-07T11:30:40.731Z,31.80
2019-06-07T11:33:12.008Z,31.80
2019-06-07T11:35:42.174Z,31.80
2019-06-07T11:38:12.643Z,31.70
2019-06-07T11:40:42.565Z,31.60
2019-06-07T11:43:14.837Z,31.60
2019-06-07T11:45:44.702Z,31.60
2019-06-07T11:48:15.521Z,31.60
2019-06-07T11:50:45.361Z,31.60
2019-06-07T11:53:15.071Z,31.50
2019-06-07T11:55:45.720Z,31.50
2019-06-07T11:58:19.710Z,31.50
2019-06-07T12:00:46.897Z,31.40
2019-06-07T12:03:18.029Z,31.40
2019-06-07T12:05:48.080Z,31.30
2019-06-07T12:08:18.206Z,31.30
2019-06-07T12:10:48.019Z,31.20
2019-06-07T12:13:18.871Z,31.20
2019-06-07T12:15:49.240Z,31.10
2019-06-07T12:18:19.651Z,31.10
2019-06-07T12:20:49.713Z,31.10
2019-06-07T12:23:20.172Z,31.10
2019-06-07T12:25:50.139Z,31.00
2019-06-07T12:28:21.023Z,31.00
2019-06-07T12:30:50.975Z,31.00
2019-06-07T12:33:21.695Z,31.00
2019-06-07T12:35:51.514Z,30.90
2019-06-07T12:38:22.516Z,30.90
2019-06-07T12:40:57.750Z,30.90
2019-06-07T12:43:23.644Z,30.90
2019-06-07T12:45:53.333Z,30.80
2019-06-07T12:48:25.865Z,30.80
2019-06-07T12:50:55.320Z,30.80
2019-06-07T12:53:27.982Z,30.80
2019-06-07T12:55:59.302Z,30.70
2019-06-07T12:58:34.737Z,30.70
2019-06-07T13:00:59.769Z,30.70
2019-06-07T13:03:29.806Z,30.70
2019-06-07T13:05:59.515Z,30.60
2019-06-07T13:08:29.321Z,30.60
2019-06-07T13:11:13.960Z,30.60
2019-06-07T13:13:30.155Z,30.60
2019-06-07T13:16:00.166Z,30.60
2019-06-07T13:18:29.962Z,30.60
2019-06-07T13:20:59.722Z,30.50
2019-06-07T13:23:29.464Z,30.50
2019-06-07T13:25:59.660Z,30.50
2019-06-07T13:28:29.499Z,30.50
2019-06-07T13:30:59.493Z,30.50
2019-06-07T13:33:35.371Z,30.40
2019-06-07T13:36:00.870Z,30.40
2019-06-07T13:38:30.689Z,30.40
2019-06-07T13:41:00.682Z,30.40
2019-06-07T13:43:30.437Z,30.40
2019-06-07T13:46:00.280Z,30.40
2019-06-07T13:48:30.116Z,30.40
2019-06-07T13:50:59.956Z,30.30
2019-06-07T13:53:29.888Z,30.30
2019-06-07T13:55:59.955Z,30.30
2019-06-07T13:58:29.927Z,30.30
2019-06-07T14:00:59.825Z,30.20
2019-06-07T14:03:33.615Z,30.20
2019-06-07T14:06:00.652Z,30.20
2019-06-07T14:08:30.435Z,30.20
2019-06-07T14:11:00.253Z,30.30
2019-06-07T14:13:30.329Z,30.20
2019-06-07T14:16:00.335Z,30.20
2019-06-07T14:18:30.592Z,30.20
2019-06-07T14:21:00.583Z,30.20
2019-06-07T14:23:45.742Z,30.20
2019-06-07T14:26:01.594Z,30.20
2019-06-07T14:28:34.027Z,30.20
2019-06-07T14:31:02.517Z,30.10
2019-06-07T14:33:33.717Z,30.10
2019-06-07T14:36:03.317Z,30.10
2019-06-07T14:38:36.945Z,30.10
2019-06-07T14:41:04.736Z,30.10
2019-06-07T14:43:34.730Z,30.00
2019-06-07T14:46:04.689Z,30.00
2019-06-07T14:48:34.708Z,30.00
2019-06-07T14:51:04.488Z,30.00
2019-06-07T14:53:35.116Z,30.00
2019-06-07T14:56:05.269Z,30.00
2019-06-07T14:58:40.080Z,30.00
2019-06-07T15:01:06.001Z,30.00
2019-06-07T15:03:35.885Z,30.00
2019-06-07T15:06:05.831Z,30.00
2019-06-07T15:08:35.657Z,30.00
2019-06-07T15:11:05.576Z,30.00
2019-06-07T15:13:35.731Z,30.00
2019-06-07T15:16:05.507Z,30.00
2019-06-07T15:18:36.106Z,30.00
2019-06-07T15:21:08.905Z,30.00
2019-06-07T15:23:39.342Z,30.00
2019-06-07T15:26:09.305Z,30.00
2019-06-07T15:28:38.982Z,30.00
2019-06-07T15:31:08.620Z,30.00
2019-06-07T15:33:38.467Z,30.00
2019-06-07T15:36:08.367Z,30.00
2019-06-07T15:38:39.290Z,30.00
2019-06-07T15:41:09.347Z,30.00
2019-06-07T15:43:39.397Z,29.90
2019-06-07T15:46:09.317Z,29.90
2019-06-07T15:48:40.079Z,29.90
2019-06-07T15:51:09.979Z,29.90
2019-06-07T15:53:44.485Z,29.90
2019-06-07T15:56:11.523Z,29.90
2019-06-07T15:58:41.476Z,29.90
2019-06-07T16:01:11.496Z,29.80
2019-06-07T16:03:42.115Z,29.80
2019-06-07T16:06:12.124Z,29.90
2019-06-07T16:08:42.623Z,29.80
2019-06-07T16:11:12.468Z,29.80
2019-06-07T16:13:42.881Z,29.80
2019-06-07T16:16:12.762Z,29.80
2019-06-07T16:18:44.200Z,29.70
2019-06-07T16:21:14.206Z,29.70
2019-06-07T16:23:44.152Z,29.70
2019-06-07T16:26:14.015Z,29.60
2019-06-07T16:28:44.676Z,29.70
2019-06-07T16:31:14.606Z,29.60
2019-06-07T16:33:45.210Z,29.60
2019-06-07T16:36:15.188Z,29.60
2019-06-07T16:38:45.160Z,29.60
2019-06-07T16:41:15.149Z,29.60
2019-06-07T16:43:44.982Z,29.50
2019-06-07T16:46:15.022Z,29.50
2019-06-07T16:48:45.172Z,29.50
2019-06-07T16:51:14.911Z,29.50
2019-06-07T16:53:45.801Z,29.50
2019-06-07T16:56:16.771Z,29.50
2019-06-07T16:58:46.862Z,29.50
2019-06-07T17:01:16.816Z,29.40
2019-06-07T17:03:47.609Z,29.40
2019-06-07T17:06:17.941Z,29.40
2019-06-07T17:08:48.471Z,29.40
2019-06-07T17:11:18.316Z,29.40
2019-06-07T17:13:48.579Z,29.40
2019-06-07T17:16:18.341Z,29.40
2019-06-07T17:18:49.133Z,29.40
2019-06-07T17:21:22.624Z,29.30
2019-06-07T17:23:52.505Z,29.30
2019-06-07T17:26:22.464Z,29.30
2019-06-07T17:28:52.311Z,29.30
2019-06-07T17:31:22.094Z,29.30
2019-06-07T17:33:51.880Z,29.20
2019-06-07T17:36:21.778Z,29.30
2019-06-07T17:38:51.796Z,29.30
2019-06-07T17:41:22.786Z,29.20
2019-06-07T17:43:59.766Z,29.20
2019-06-07T17:46:23.838Z,29.20
2019-06-07T17:48:53.864Z,29.20
2019-06-07T17:51:23.683Z,29.20
2019-06-07T17:53:53.549Z,29.10
2019-06-07T17:56:23.400Z,29.10
2019-06-07T17:58:53.273Z,29.20
2019-06-07T18:01:23.283Z,29.10
2019-06-07T18:03:53.245Z,29.10
2019-06-07T18:06:23.191Z,29.10
2019-06-07T18:08:53.936Z,29.10
2019-06-07T18:11:24.099Z,29.10
2019-06-07T18:14:09.690Z,29.10
2019-06-07T18:16:25.282Z,29.10
2019-06-07T18:18:55.257Z,29.00
2019-06-07T18:21:25.192Z,29.10
2019-06-07T18:23:55.193Z,29.10
2019-06-07T18:26:24.983Z,29.00
2019-06-07T18:28:54.830Z,29.00
2019-06-07T18:31:24.718Z,29.00
2019-06-07T18:33:55.047Z,29.00
2019-06-07T18:36:25.060Z,29.00
2019-06-07T18:38:55.153Z,29.00
2019-06-07T18:41:25.070Z,28.90
2019-06-07T18:43:55.376Z,28.90
2019-06-07T18:46:25.342Z,28.90
2019-06-07T18:48:55.354Z,28.90
2019-06-07T18:51:25.463Z,28.90
2019-06-07T18:53:55.746Z,28.90
2019-06-07T18:56:25.791Z,28.90
2019-06-07T18:58:55.727Z,28.90
2019-06-07T19:01:25.563Z,28.80
2019-06-07T19:03:56.168Z,28.90
2019-06-07T19:06:26.292Z,28.80
2019-06-07T19:08:57.862Z,28.80
2019-06-07T19:11:27.288Z,28.80
2019-06-07T19:13:57.224Z,28.70
2019-06-07T19:16:27.012Z,28.80
2019-06-07T19:18:57.791Z,28.80
2019-06-07T19:21:27.900Z,28.80
2019-06-07T19:23:58.071Z,28.80
2019-06-07T19:26:27.892Z,28.80
2019-06-07T19:28:58.780Z,28.80
2019-06-07T19:31:28.655Z,28.80
2019-06-07T19:33:59.396Z,28.80
